Kearny, Arizona
Current Conditions -  °F | °C
As of 11:47 AM on Thursday 30 Oct 2014 (Local Time) from KIWA Reporting Station
Scattered Clouds Scattered Clouds  
Wind Chill: 82°   Ceiling: Unl
Heat Index: 82°   Visibility: 35mi
Dew Point: 43°   Wind: 3mph
Humidity: 25%   Direction: 300°WNW
Pressure: 30.03"   Gusts: NA
Location:  33.06°N, 110.91°W
Report Text: KIWA 301847Z 30003KT 35SM SCT250 28/06 A3003
Loading
Personal Weather Stations






























Interactive Weather Map
Tropical Storm Tracking
New forecast layout! Learn more

10-Day Weather Forecast

Advertisements
Track Severe Weather on mobile